Time;durP1;ratioP1;P1;durP2;ratioP2;P2;SDS_P1;SDS_P2;PMS_P1;PMS_P2;Temp;Humidity;BMP_temperature;BMP_pressure;BME280_temperature;BME280_humidity;BME280_pressure;Samples;Min_cycle;Max_cycle;Signal;HPM_P1;HPM_P2
2024/02/29 00:00:06;;;;;;;;;;;;;;;3.27;100.00;97104.37;30001;983;1877;-53
2024/02/29 00:00:38;;;;;;;;;;;;;;;3.25;100.00;97099.25;30001;982;1881;-53
2024/02/29 00:01:09;;;;;;;;;;;;;;;3.25;100.00;97093.06;30001;982;1877;-54
2024/02/29 00:01:40;;;;;;;;;;;;;;;3.27;100.00;97099.81;30001;982;1881;-53
2024/02/29 00:02:11;;;;;;;;;;;;;;;3.26;100.00;97090.16;30001;982;1864;-53
2024/02/29 00:02:42;;;;;;;;;;;;;;;3.25;100.00;97093.88;30001;982;1873;-53
2024/02/29 00:03:14;;;;;;;;;;;;;;;3.23;100.00;97093.31;30001;982;1877;-52
2024/02/29 00:03:44;;;;;;;;;;;;;;;3.21;100.00;97092.72;30001;983;1880;-53
2024/02/29 00:04:18;;;;;;;;;;;;;;;3.20;100.00;97091.09;30001;983;1876;-53
2024/02/29 00:04:51;;;;;;;;;;;;;;;3.22;100.00;97088.19;30001;983;1881;-53
2024/02/29 00:05:23;;;;;;;;;;;;;;;3.21;100.00;97092.72;30001;983;1877;-53
2024/02/29 00:05:57;;;;;;;;;;;;;;;3.21;100.00;97092.72;30001;983;1881;-53
2024/02/29 00:06:28;;;;;;;;;;;;;;;3.19;100.00;97094.84;30001;983;1877;-53
2024/02/29 00:07:02;;;;;;;;;;;;;;;3.19;100.00;97094.03;30001;983;1881;-53
2024/02/29 00:07:34;;;;;;;;;;;;;;;3.18;100.00;97089.72;30001;983;1864;-53
2024/02/29 00:08:05;;;;;;;;;;;;;;;3.17;100.00;97093.44;30001;982;1873;-53
2024/02/29 00:08:36;;;;;;;;;;;;;;;3.15;100.00;97087.50;30001;982;1877;-52
2024/02/29 00:09:07;;;;;;;;;;;;;;;3.16;100.00;97095.31;30001;982;1881;-53
2024/02/29 00:09:39;;;;;;;;;;;;;;;3.15;100.00;97088.31;30001;986;1878;-53
2024/02/29 00:10:10;;;;;;;;;;;;;;;3.16;100.00;97089.13;30001;983;1881;-53
2024/02/29 00:10:41;;;;;;;;;;;;;;;3.14;100.00;97086.69;30001;983;1876;-54
2024/02/29 00:11:13;;;;;;;;;;;;;;;3.17;100.00;97086.22;30001;983;1881;-53
2024/02/29 00:11:44;;;;;;;;;;;;;;;3.16;100.00;97079.22;30001;983;1876;-53
2024/02/29 00:12:15;;;;;;;;;;;;;;;3.15;100.00;97082.97;30001;983;1881;-53
2024/02/29 00:12:46;;;;;;;;;;;;;;;3.12;100.00;97080.75;30001;983;1864;-53
2024/02/29 00:13:17;;;;;;;;;;;;;;;3.09;100.00;97081.28;30001;983;1872;-52
2024/02/29 00:13:48;;;;;;;;;;;;;;;3.06;100.00;97079.06;30001;983;1877;-54
2024/02/29 00:14:19;;;;;;;;;;;;;;;3.03;100.00;97076.88;30001;982;1881;-53
2024/02/29 00:14:53;;;;;;;;;;;;;;;2.99;100.00;97073.84;30001;982;1877;-53
2024/02/29 00:15:26;;;;;;;;;;;;;;;2.97;100.00;97070.59;30001;982;1881;-53
2024/02/29 00:15:57;;;;;;;;;;;;;;;2.96;100.00;97079.69;30001;987;1877;-53
2024/02/29 00:16:28;;;;;;;;;;;;;;;2.95;100.00;97078.06;30001;982;1882;-53
2024/02/29 00:17:00;;;;;;;;;;;;;;;2.98;100.00;97082.13;30001;982;1805;-53
2024/02/29 00:17:31;;;;;;;;;;;;;;;2.99;100.00;97078.41;30001;982;1882;-53
2024/02/29 00:18:04;;;;;;;;;;;;;;;3.00;100.00;97077.34;30001;983;1863;-53
2024/02/29 00:18:36;;;;;;;;;;;;;;;3.00;100.00;97080.03;30001;983;1773;-53
2024/02/29 00:19:07;;;;;;;;;;;;;;;3.00;100.00;97069.31;30001;983;1877;-53
2024/02/29 00:19:39;;;;;;;;;;;;;;;3.00;100.00;97074.66;30001;964;1900;-53
2024/02/29 00:20:10;;;;;;;;;;;;;;;3.00;100.00;97075.47;30001;983;1877;-53
2024/02/29 00:20:41;;;;;;;;;;;;;;;3.02;100.00;97075.22;30001;983;1881;-53
2024/02/29 00:21:12;;;;;;;;;;;;;;;3.02;100.00;97069.88;30001;983;1877;-53
2024/02/29 00:21:44;;;;;;;;;;;;;;;3.02;100.00;97077.91;30001;983;1881;-53
2024/02/29 00:22:15;;;;;;;;;;;;;;;3.02;100.00;97067.19;30001;982;1877;-71
2024/02/29 00:22:46;;;;;;;;;;;;;;;3.02;100.00;97075.22;30001;982;1868;-53
2024/02/29 00:23:18;;;;;;;;;;;;;;;3.00;100.00;97075.47;30001;982;1868;-53
2024/02/29 00:23:49;;;;;;;;;;;;;;;2.98;100.00;97072.22;30001;982;1882;-53
2024/02/29 00:24:20;;;;;;;;;;;;;;;2.96;100.00;97068.16;30001;982;1877;-53
2024/02/29 00:24:52;;;;;;;;;;;;;;;2.95;100.00;97071.88;30001;983;1881;-53
2024/02/29 00:25:25;;;;;;;;;;;;;;;2.93;100.00;97071.31;30001;983;1876;-53
2024/02/29 00:25:56;;;;;;;;;;;;;;;2.90;100.00;97072.59;30001;983;1881;-54
2024/02/29 00:26:30;;;;;;;;;;;;;;;2.89;100.00;97070.16;30001;983;1877;-53
2024/02/29 00:27:01;;;;;;;;;;;;;;;2.88;100.00;97068.53;30001;983;1881;-53
2024/02/29 00:27:32;;;;;;;;;;;;;;;2.87;100.00;97069.56;30001;983;1877;-53
2024/02/29 00:28:04;;;;;;;;;;;;;;;2.83;100.00;97063.06;30001;983;1868;-53
2024/02/29 00:28:35;;;;;;;;;;;;;;;2.82;100.00;97064.13;30001;983;1868;-67
2024/02/29 00:29:06;;;;;;;;;;;;;;;2.79;100.00;97065.41;30001;983;1881;-53
2024/02/29 00:29:38;;;;;;;;;;;;;;;2.79;100.00;97061.91;30001;982;1877;-54
2024/02/29 00:30:10;;;;;;;;;;;;;;;2.74;100.00;97068.03;30001;982;1881;-53
2024/02/29 00:30:41;;;;;;;;;;;;;;;2.71;100.00;97071.16;30001;982;1877;-53
2024/02/29 00:31:11;;;;;;;;;;;;;;;2.72;100.00;97061.25;30001;982;1882;-54
2024/02/29 00:31:46;;;;;;;;;;;;;;;2.72;100.00;97066.63;30001;982;1877;-53
2024/02/29 00:32:17;;;;;;;;;;;;;;;2.72;100.00;97061.25;30001;983;1881;-53
2024/02/29 00:32:51;;;;;;;;;;;;;;;2.72;100.00;97069.31;30001;983;1876;-53
2024/02/29 00:33:22;;;;;;;;;;;;;;;2.71;100.00;97063.12;30001;983;1868;-53
2024/02/29 00:33:53;;;;;;;;;;;;;;;2.71;100.00;97070.34;30001;983;1868;-53
2024/02/29 00:34:24;;;;;;;;;;;;;;;2.72;100.00;97072.81;30001;983;1881;-54
2024/02/29 00:34:55;;;;;;;;;;;;;;;2.73;100.00;97063.72;30001;986;1877;-53
2024/02/29 00:35:26;;;;;;;;;;;;;;;2.73;100.00;97068.25;30001;983;1881;-53
2024/02/29 00:35:57;;;;;;;;;;;;;;;2.73;100.00;97069.06;30001;983;1877;-53
2024/02/29 00:36:28;;;;;;;;;;;;;;;2.74;100.00;97064.53;30001;983;1881;-68
2024/02/29 00:36:58;;;;;;;;;;;;;;;2.76;100.00;97059.75;30001;982;1877;-53
2024/02/29 00:37:29;;;;;;;;;;;;;;;2.74;100.00;97059.16;30001;982;1881;-53
2024/02/29 00:38:00;;;;;;;;;;;;;;;2.75;100.00;97058.13;30001;982;1877;-66
2024/02/29 00:38:32;;;;;;;;;;;;;;;2.75;100.00;97060.78;30001;982;1868;-67
2024/02/29 00:39:03;;;;;;;;;;;;;;;2.72;100.00;97061.25;30001;982;1868;-53
2024/02/29 00:39:35;;;;;;;;;;;;;;;2.65;100.00;97064.91;30001;983;1881;-53
2024/02/29 00:40:07;;;;;;;;;;;;;;;2.66;100.00;97060.34;30001;983;1876;-53
2024/02/29 00:40:40;;;;;;;;;;;;;;;2.67;100.00;97060.13;30001;983;1881;-53
2024/02/29 00:41:14;;;;;;;;;;;;;;;2.72;100.00;97061.25;30001;983;1877;-53
2024/02/29 00:41:45;;;;;;;;;;;;;;;2.74;100.00;97064.53;30001;983;1881;-53
2024/02/29 00:42:16;;;;;;;;;;;;;;;2.73;100.00;97065.56;30001;983;1877;-54
2024/02/29 00:42:47;;;;;;;;;;;;;;;2.73;100.00;97062.91;30001;983;1881;-53
2024/02/29 00:43:18;;;;;;;;;;;;;;;2.72;100.00;97061.25;30001;983;1877;-53
2024/02/29 00:43:49;;;;;;;;;;;;;;;2.66;100.00;97071.88;30001;983;1868;-53
2024/02/29 00:44:19;;;;;;;;;;;;;;;2.63;100.00;97063.50;30001;983;1868;-52
2024/02/29 00:44:50;;;;;;;;;;;;;;;2.63;100.00;97067.00;30001;982;1881;-55
2024/02/29 00:45:21;;;;;;;;;;;;;;;2.63;100.00;97066.19;30001;982;1838;-54
2024/02/29 00:45:52;;;;;;;;;;;;;;;2.64;100.00;97060.59;30001;982;1881;-54
2024/02/29 00:46:23;;;;;;;;;;;;;;;2.64;100.00;97065.94;30001;982;1877;-53
2024/02/29 00:46:55;;;;;;;;;;;;;;;2.65;100.00;97062.22;30001;982;1882;-53
2024/02/29 00:47:26;;;;;;;;;;;;;;;2.65;100.00;97064.06;30001;983;1876;-53
2024/02/29 00:47:57;;;;;;;;;;;;;;;2.61;100.00;97061.06;30001;983;1881;-53
2024/02/29 00:48:28;;;;;;;;;;;;;;;2.61;100.00;97061.06;30001;983;1876;-53
2024/02/29 00:48:59;;;;;;;;;;;;;;;2.58;100.00;97066.87;30001;983;1868;-53
2024/02/29 00:49:31;;;;;;;;;;;;;;;2.56;100.00;97065.50;30001;983;1868;-53
2024/02/29 00:50:03;;;;;;;;;;;;;;;2.56;100.00;97070.84;30001;983;1881;-53
2024/02/29 00:50:37;;;;;;;;;;;;;;;2.57;100.00;97064.44;30001;983;1877;-54
2024/02/29 00:51:08;;;;;;;;;;;;;;;2.58;100.00;97069.56;30001;983;1881;-55
2024/02/29 00:51:40;;;;;;;;;;;;;;;2.61;100.00;97065.59;30001;983;1877;-53
2024/02/29 00:52:11;;;;;;;;;;;;;;;2.60;100.00;97059.44;30001;982;1881;-53
2024/02/29 00:53:51;;;;;;;;;;;;;;;2.62;100.00;97061.88;89987;930;17000;-90
2024/02/29 00:54:43;;;;;;;;;;;;;;;2.63;100.00;97064.31;30001;983;1868;-93
2024/02/29 00:55:18;;;;;;;;;;;;;;;2.67;100.00;97065.47;30001;985;1860;-93
2024/02/29 00:55:50;;;;;;;;;;;;;;;2.67;100.00;97059.28;30001;983;1876;-91
2024/02/29 00:56:22;;;;;;;;;;;;;;;2.67;100.00;97059.28;30001;987;1868;-91
2024/02/29 00:56:54;;;;;;;;;;;;;;;2.66;100.00;97063.03;30001;986;1873;-93
2024/02/29 00:57:37;;;;;;;;;;;;;;;2.66;100.00;97069.19;30001;983;1881;-93
2024/02/29 00:58:08;;;;;;;;;;;;;;;2.66;100.00;97058.47;30001;983;1877;-92
2024/02/29 00:58:41;;;;;;;;;;;;;;;2.66;100.00;97058.47;30001;985;1872;-91
2024/02/29 00:59:25;;;;;;;;;;;;;;;2.65;100.00;97056.03;30001;986;1872;-90
2024/02/29 01:00:27;;;;;;;;;;;;;;;2.60;100.00;97059.44;30001;982;1868;-91
2024/02/29 01:01:18;;;;;;;;;;;;;;;;;;;;;
2024/02/29 01:01:59;;;;;;;;;;;;;;;2.54;100.00;97057.69;30001;983;1881;-90
2024/02/29 01:02:34;;;;;;;;;;;;;;;2.54;100.00;97055.03;30001;987;1868;-90
2024/02/29 01:03:12;;;;;;;;;;;;;;;2.53;100.00;97053.38;30001;983;1881;-90
2024/02/29 01:03:52;;;;;;;;;;;;;;;2.51;100.00;97055.50;30001;983;1876;-91
2024/02/29 01:04:31;;;;;;;;;;;;;;;2.48;100.00;97061.31;30001;983;1881;-91
2024/02/29 01:05:07;;;;;;;;;;;;;;;2.50;100.00;97056.53;30001;983;1877;-90
2024/02/29 01:05:39;;;;;;;;;;;;;;;2.51;100.00;97050.13;30001;986;1860;-89
2024/02/29 01:06:46;;;;;;;;;;;;;;;2.51;100.00;97055.50;30001;982;1877;-91
2024/02/29 01:07:48;;;;;;;;;;;;;;;2.50;100.00;97053.06;30001;987;1872;-92
2024/02/29 01:08:22;;;;;;;;;;;;;;;2.49;100.00;97049.56;30001;982;1881;-90
2024/02/29 01:08:53;;;;;;;;;;;;;;;2.50;100.00;97045.81;30001;983;1881;-90
2024/02/29 01:09:27;;;;;;;;;;;;;;;2.52;100.00;97054.44;30001;983;1885;-90
2024/02/29 01:10:06;;;;;;;;;;;;;;;2.52;100.00;97051.75;30001;983;1881;-90
2024/02/29 01:11:03;;;;;;;;;;;;;;;2.53;100.00;97042.69;30001;694;1855;-52
2024/02/29 01:11:34;;;;;;;;;;;;;;;2.53;100.00;97042.69;30001;983;1872;-54
2024/02/29 01:12:05;;;;;;;;;;;;;;;2.52;100.00;97046.41;30001;983;1877;-53
2024/02/29 01:12:39;;;;;;;;;;;;;;;2.51;100.00;97047.47;30001;983;1877;-53
2024/02/29 01:13:10;;;;;;;;;;;;;;;2.48;100.00;97047.12;30001;983;1877;-53
2024/02/29 01:13:41;;;;;;;;;;;;;;;2.43;100.00;97042.47;30001;983;1877;-53
2024/02/29 01:14:12;;;;;;;;;;;;;;;2.40;100.00;97040.28;30001;982;1877;-53
2024/02/29 01:14:43;;;;;;;;;;;;;;;2.40;100.00;97037.63;30001;982;1877;-53
2024/02/29 01:15:15;;;;;;;;;;;;;;;2.40;100.00;97032.25;30001;982;1877;-53
2024/02/29 01:15:46;;;;;;;;;;;;;;;2.38;100.00;97033.53;30001;982;1877;-53
2024/02/29 01:16:17;;;;;;;;;;;;;;;2.35;100.00;97040.19;30001;964;1883;-52
2024/02/29 01:16:51;;;;;;;;;;;;;;;2.35;100.00;97045.53;30001;983;1872;-53
2024/02/29 01:17:22;;;;;;;;;;;;;;;2.32;100.00;97038.78;30001;983;1876;-53
2024/02/29 01:17:53;;;;;;;;;;;;;;;2.30;100.00;97037.41;30001;983;1876;-53
2024/02/29 01:18:24;;;;;;;;;;;;;;;2.28;100.00;97039.50;30001;983;1876;-53
2024/02/29 01:18:55;;;;;;;;;;;;;;;2.28;100.00;97039.50;30001;956;1903;-53
2024/02/29 01:19:27;;;;;;;;;;;;;;;2.28;100.00;97037.63;30001;983;1876;-53
2024/02/29 01:19:58;;;;;;;;;;;;;;;2.27;100.00;97038.69;30001;983;1877;-66
2024/02/29 01:20:28;;;;;;;;;;;;;;;2.26;100.00;97036.25;30001;982;1877;-53
2024/02/29 01:20:59;;;;;;;;;;;;;;;2.28;100.00;97036.81;30001;982;1877;-52
2024/02/29 01:21:30;;;;;;;;;;;;;;;2.27;100.00;97040.53;30001;982;1859;-53
2024/02/29 01:22:02;;;;;;;;;;;;;;;2.25;100.00;97034.63;30001;982;1872;-53
2024/02/29 01:22:34;;;;;;;;;;;;;;;2.27;100.00;97037.88;30001;982;1877;-53
2024/02/29 01:23:05;;;;;;;;;;;;;;;2.27;100.00;97032.50;30001;982;1877;-53
2024/02/29 01:23:36;;;;;;;;;;;;;;;2.29;100.00;97033.09;30001;982;1877;-54
2024/02/29 01:24:07;;;;;;;;;;;;;;;2.29;100.00;97030.41;30001;983;1876;-53
2024/02/29 01:24:38;;;;;;;;;;;;;;;2.31;100.00;97033.66;30001;983;1876;-53
2024/02/29 01:25:10;;;;;;;;;;;;;;;2.31;100.00;97033.66;30001;983;1876;-53
2024/02/29 01:25:42;;;;;;;;;;;;;;;2.31;100.00;97033.66;30001;983;1876;-53
2024/02/29 01:26:13;;;;;;;;;;;;;;;2.30;100.00;97032.03;30001;983;1876;-52
2024/02/29 01:26:44;;;;;;;;;;;;;;;2.30;100.00;97032.84;30001;983;1859;-53
2024/02/29 01:27:16;;;;;;;;;;;;;;;2.28;100.00;97032.28;30001;987;1868;-53
2024/02/29 01:27:47;;;;;;;;;;;;;;;2.30;100.00;97029.37;30001;983;1877;-53
2024/02/29 01:28:17;;;;;;;;;;;;;;;2.29;100.00;97025.88;30001;982;1877;-53
2024/02/29 01:28:48;;;;;;;;;;;;;;;2.29;100.00;97027.75;30001;982;1877;-53
2024/02/29 01:29:19;;;;;;;;;;;;;;;2.30;100.00;97021.34;30001;982;1877;-53
2024/02/29 01:29:55;;;;;;;;;;;;;;;2.31;100.00;97025.62;30001;982;1777;-53
2024/02/29 01:30:25;;;;;;;;;;;;;;;2.30;100.00;97032.03;30001;982;1877;-53
2024/02/29 01:30:57;;;;;;;;;;;;;;;2.29;100.00;97030.41;30001;982;1877;-53
2024/02/29 01:31:29;;;;;;;;;;;;;;;2.27;100.00;97025.28;30001;983;1876;-53
2024/02/29 01:32:01;;;;;;;;;;;;;;;2.24;100.00;97019.59;30001;983;1859;-53
2024/02/29 01:32:31;;;;;;;;;;;;;;;2.19;100.00;97027.53;30001;983;1872;-53
2024/02/29 01:33:05;;;;;;;;;;;;;;;2.15;100.00;97029.03;30001;983;1876;-53
2024/02/29 01:33:36;;;;;;;;;;;;;;;2.12;100.00;97027.66;30001;962;1897;-53
2024/02/29 01:34:07;;;;;;;;;;;;;;;2.13;100.00;97025.78;30001;983;1876;-53
2024/02/29 01:34:38;;;;;;;;;;;;;;;2.13;100.00;97021.25;30001;983;1876;-53
2024/02/29 01:35:10;;;;;;;;;;;;;;;2.15;100.00;97018.34;30001;983;1877;-53
2024/02/29 01:35:41;;;;;;;;;;;;;;;2.16;100.00;97022.63;30001;982;1877;-54
2024/02/29 01:36:13;;;;;;;;;;;;;;;2.15;100.00;97023.69;30001;982;1877;-53
2024/02/29 01:36:46;;;;;;;;;;;;;;;2.10;100.00;97016.34;30001;982;1877;-52
2024/02/29 01:37:17;;;;;;;;;;;;;;;2.08;100.00;97017.66;30001;982;1859;-53
2024/02/29 01:37:49;;;;;;;;;;;;;;;2.05;100.00;97018.94;30001;982;1872;-53
2024/02/29 01:38:21;;;;;;;;;;;;;;;2.04;100.00;97019.19;30001;982;1877;-53
2024/02/29 01:38:51;;;;;;;;;;;;;;;2.02;100.00;97019.41;30001;982;1877;-69
2024/02/29 01:39:26;;;;;;;;;;;;;;;2.01;100.00;97021.28;30001;983;1876;-53
2024/02/29 01:39:56;;;;;;;;;;;;;;;2.03;100.00;97014.88;30001;983;1876;-53
2024/02/29 01:40:27;;;;;;;;;;;;;;;2.03;100.00;97014.88;30001;983;1876;-53
2024/02/29 01:41:00;;;;;;;;;;;;;;;2.01;100.00;97018.59;30001;983;1876;-53
2024/02/29 01:41:31;;;;;;;;;;;;;;;1.99;100.00;97015.34;30001;983;1876;-53
2024/02/29 01:42:02;;;;;;;;;;;;;;;2.00;100.00;97016.16;30001;983;1876;-53
2024/02/29 01:42:33;;;;;;;;;;;;;;;2.00;100.00;97014.31;30001;983;1859;-53
2024/02/29 01:43:05;;;;;;;;;;;;;;;2.00;100.00;97011.63;30001;982;1872;-53
2024/02/29 01:43:36;;;;;;;;;;;;;;;2.00;100.00;97008.94;30001;982;1877;-53
2024/02/29 01:44:07;;;;;;;;;;;;;;;1.99;100.00;97012.69;30001;982;1842;-53
2024/02/29 01:44:45;;;;;;;;;;;;;;;1.99;100.00;97009.19;30001;962;1897;-53
2024/02/29 01:45:17;;;;;;;;;;;;;;;1.98;100.00;97013.72;30001;982;1877;-53
2024/02/29 01:45:57;;;;;;;;;;;;;;;1.99;100.00;97010.00;30001;982;1877;-53
2024/02/29 01:46:30;;;;;;;;;;;;;;;2.02;100.00;97014.06;30001;983;1876;-53
2024/02/29 01:47:01;;;;;;;;;;;;;;;2.04;100.00;97011.16;30001;983;1876;-53
2024/02/29 01:47:32;;;;;;;;;;;;;;;2.07;100.00;97010.69;30001;983;1876;-53
2024/02/29 01:48:03;;;;;;;;;;;;;;;2.06;100.00;97014.41;30001;983;1859;-53
2024/02/29 01:48:34;;;;;;;;;;;;;;;2.07;100.00;97005.34;30001;983;1872;-54
2024/02/29 01:49:06;;;;;;;;;;;;;;;2.06;100.00;97009.88;30001;983;1876;-54
2024/02/29 01:49:37;;;;;;;;;;;;;;;2.06;100.00;97004.53;30001;983;1876;-54
2024/02/29 01:50:09;;;;;;;;;;;;;;;2.07;100.00;96999.97;30001;983;1877;-54
2024/02/29 01:50:40;;;;;;;;;;;;;;;2.07;100.00;96999.97;30001;982;1877;-53
2024/02/29 01:51:11;;;;;;;;;;;;;;;2.07;100.00;97000.81;30001;982;1876;-54
2024/02/29 01:51:42;;;;;;;;;;;;;;;2.08;100.00;97010.44;30001;982;1877;-53
2024/02/29 01:52:14;;;;;;;;;;;;;;;2.08;100.00;97006.97;30001;982;1877;-53
2024/02/29 01:52:45;;;;;;;;;;;;;;;2.06;100.00;97009.06;30001;982;1877;-54
2024/02/29 01:53:16;;;;;;;;;;;;;;;2.06;100.00;97003.72;30001;983;1858;-54
2024/02/29 01:53:47;;;;;;;;;;;;;;;2.06;100.00;97006.37;30001;983;1871;-53
2024/02/29 01:54:18;;;;;;;;;;;;;;;2.06;100.00;97009.06;30001;972;1897;-53
2024/02/29 01:54:49;;;;;;;;;;;;;;;2.06;100.00;97009.06;30001;983;1876;-53
2024/02/29 01:55:24;;;;;;;;;;;;;;;2.05;100.00;97008.25;30001;983;1876;-53
2024/02/29 01:55:55;;;;;;;;;;;;;;;2.05;100.00;97012.78;30001;983;1876;-53
2024/02/29 01:56:26;;;;;;;;;;;;;;;2.04;100.00;97008.47;30001;983;1876;-53
2024/02/29 01:56:57;;;;;;;;;;;;;;;2.04;100.00;97011.16;30001;983;1876;-53
2024/02/29 01:57:28;;;;;;;;;;;;;;;2.03;100.00;97009.53;30001;983;1876;-53
2024/02/29 01:57:59;;;;;;;;;;;;;;;2.00;100.00;97011.63;30001;983;1877;-66
2024/02/29 01:58:30;;;;;;;;;;;;;;;1.99;100.00;97010.00;30001;982;1859;-53
2024/02/29 01:59:02;;;;;;;;;;;;;;;1.98;100.00;97005.69;30001;982;1872;-53
2024/02/29 01:59:33;;;;;;;;;;;;;;;1.98;100.00;97008.38;30001;982;1877;-53
2024/02/29 02:00:04;;;;;;;;;;;;;;;1.99;100.00;97006.50;30001;982;1877;-53
2024/02/29 02:00:36;;;;;;;;;;;;;;;1.98;100.00;97013.72;30001;982;1877;-53
2024/02/29 02:01:07;;;;;;;;;;;;;;;1.98;100.00;97013.72;30001;983;1876;-54
2024/02/29 02:01:38;;;;;;;;;;;;;;;1.97;100.00;97014.78;30001;983;1876;-54
2024/02/29 02:02:09;;;;;;;;;;;;;;;1.98;100.00;97012.91;30001;983;1876;-53
2024/02/29 02:02:40;;;;;;;;;;;;;;;1.98;100.00;97003.03;30001;983;1829;-54
2024/02/29 02:03:11;;;;;;;;;;;;;;;1.99;100.00;97014.53;30001;983;1876;-54
2024/02/29 02:03:45;;;;;;;;;;;;;;;1.98;100.00;97005.69;30001;983;1859;-66
2024/02/29 02:04:16;;;;;;;;;;;;;;;1.97;100.00;97005.94;30001;983;1872;-54
2024/02/29 02:04:47;;;;;;;;;;;;;;;1.97;100.00;97001.38;30001;983;1876;-53
2024/02/29 02:05:18;;;;;;;;;;;;;;;1.97;100.00;97012.09;30001;983;1876;-54
2024/02/29 02:05:49;;;;;;;;;;;;;;;1.94;100.00;97007.22;30001;982;1877;-54
2024/02/29 02:06:20;;;;;;;;;;;;;;;1.94;100.00;97012.56;30001;982;1876;-53
2024/02/29 02:06:51;;;;;;;;;;;;;;;1.92;100.00;97003.13;30001;982;1876;-53
2024/02/29 02:07:22;;;;;;;;;;;;;;;1.92;100.00;97005.81;30001;982;1808;-54
2024/02/29 02:07:53;;;;;;;;;;;;;;;1.92;100.00;97009.31;30001;982;1877;-53
2024/02/29 02:08:26;;;;;;;;;;;;;;;1.92;100.00;97011.16;30001;983;1876;-68
2024/02/29 02:08:57;;;;;;;;;;;;;;;1.92;100.00;97008.50;30001;983;1858;-53
2024/02/29 02:09:28;;;;;;;;;;;;;;;1.93;100.00;97000.22;30001;983;1829;-54
2024/02/29 02:09:59;;;;;;;;;;;;;;;1.94;100.00;97009.88;30001;983;1876;-53
2024/02/29 02:10:30;;;;;;;;;;;;;;;1.95;100.00;97003.50;30001;983;1876;-55
2024/02/29 02:11:01;;;;;;;;;;;;;;;1.95;100.00;96998.13;30001;983;1876;-53
2024/02/29 02:11:32;;;;;;;;;;;;;;;1.97;100.00;97001.38;30001;983;1876;-53
2024/02/29 02:12:03;;;;;;;;;;;;;;;1.98;100.00;97007.56;30001;983;1876;-54
2024/02/29 02:12:34;;;;;;;;;;;;;;;2.00;100.00;96997.44;30001;983;1876;-53
2024/02/29 02:13:05;;;;;;;;;;;;;;;2.03;100.00;96998.81;30001;983;1877;-54
2024/02/29 02:13:36;;;;;;;;;;;;;;;2.04;100.00;97000.44;30001;982;1876;-53
2024/02/29 02:14:07;;;;;;;;;;;;;;;2.06;100.00;96998.34;30001;982;1859;-66
2024/02/29 02:14:38;;;;;;;;;;;;;;;2.06;100.00;96991.13;30001;982;1872;-53
2024/02/29 02:15:11;;;;;;;;;;;;;;;2.08;100.00;96990.91;30001;982;1877;-54
2024/02/29 02:15:42;;;;;;;;;;;;;;;2.09;100.00;96987.16;30001;982;1877;-53
2024/02/29 02:16:13;;;;;;;;;;;;;;;2.10;100.00;96983.41;30001;983;1876;-54
2024/02/29 02:16:44;;;;;;;;;;;;;;;2.13;100.00;96991.78;30001;983;1876;-53
2024/02/29 02:17:15;;;;;;;;;;;;;;;2.15;100.00;96987.03;30001;983;1876;-53
2024/02/29 02:17:49;;;;;;;;;;;;;;;2.17;100.00;96990.28;30001;968;1897;-54
2024/02/29 02:18:21;;;;;;;;;;;;;;;2.18;100.00;96983.06;30001;983;1876;-53
2024/02/29 02:18:51;;;;;;;;;;;;;;;2.19;100.00;96988.19;30001;983;1877;-54
2024/02/29 02:19:22;;;;;;;;;;;;;;;2.23;100.00;96983.16;30001;983;1859;-54
2024/02/29 02:19:55;;;;;;;;;;;;;;;2.24;100.00;96980.25;30001;983;1872;-53
2024/02/29 02:20:27;;;;;;;;;;;;;;;2.22;100.00;96977.00;30001;983;1877;-53
2024/02/29 02:20:58;;;;;;;;;;;;;;;2.20;100.00;96989.00;30001;982;1877;-67
2024/02/29 02:21:29;;;;;;;;;;;;;;;2.18;100.00;96981.19;30001;982;1877;-53
2024/02/29 02:22:03;;;;;;;;;;;;;;;2.17;100.00;96984.09;30001;982;1877;-54
2024/02/29 02:22:35;;;;;;;;;;;;;;;2.16;100.00;96982.47;30001;982;1859;-54
2024/02/29 02:23:06;;;;;;;;;;;;;;;2.16;100.00;96987.84;30001;982;1873;-53
2024/02/29 02:23:36;;;;;;;;;;;;;;;2.17;100.00;96984.09;30001;983;1876;-54
2024/02/29 02:24:10;;;;;;;;;;;;;;;2.16;100.00;96982.47;30001;983;1876;-53
2024/02/29 02:24:41;;;;;;;;;;;;;;;2.13;100.00;96985.63;30001;983;1876;-54
2024/02/29 02:25:12;;;;;;;;;;;;;;;2.13;100.00;96990.97;30001;983;1876;-53
2024/02/29 02:25:43;;;;;;;;;;;;;;;2.15;100.00;96980.84;30001;983;1876;-52
2024/02/29 02:26:14;;;;;;;;;;;;;;;2.16;100.00;96977.94;30001;983;1876;-53
2024/02/29 02:26:45;;;;;;;;;;;;;;;2.19;100.00;96985.50;30001;983;1877;-53
2024/02/29 02:27:15;;;;;;;;;;;;;;;2.19;100.00;96985.50;30001;983;1876;-53
2024/02/29 02:27:48;;;;;;;;;;;;;;;2.18;100.00;96983.88;30001;982;1859;-54
2024/02/29 02:28:19;;;;;;;;;;;;;;;2.17;100.00;96981.44;30001;982;1872;-54
2024/02/29 02:28:50;;;;;;;;;;;;;;;2.16;100.00;96980.63;30001;982;1877;-53
2024/02/29 02:29:21;;;;;;;;;;;;;;;2.15;100.00;96976.31;30001;982;1877;-53
2024/02/29 02:29:52;;;;;;;;;;;;;;;2.15;100.00;96979.00;30001;982;1876;-56
2024/02/29 02:30:23;;;;;;;;;;;;;;;2.15;100.00;96978.19;30001;982;1877;-53
2024/02/29 02:30:54;;;;;;;;;;;;;;;2.13;100.00;96978.41;30001;983;1876;-54
2024/02/29 02:31:25;;;;;;;;;;;;;;;2.14;100.00;96979.22;30001;983;1876;-54
2024/02/29 02:31:56;;;;;;;;;;;;;;;2.16;100.00;96977.13;30001;983;1876;-53
2024/02/29 02:32:26;;;;;;;;;;;;;;;2.16;100.00;96982.47;30001;983;1876;-53
2024/02/29 02:32:57;;;;;;;;;;;;;;;2.16;100.00;96977.94;30001;983;1859;-54
2024/02/29 02:33:28;;;;;;;;;;;;;;;2.15;100.00;96976.31;30001;983;1872;-54
2024/02/29 02:34:00;;;;;;;;;;;;;;;2.15;100.00;96970.16;30001;983;1876;-53
2024/02/29 02:34:31;;;;;;;;;;;;;;;2.16;100.00;96971.78;30001;983;1877;-54
2024/02/29 02:35:04;;;;;;;;;;;;;;;2.14;100.00;96968.53;30001;983;1876;-53
2024/02/29 02:35:35;;;;;;;;;;;;;;;2.13;100.00;96966.91;30001;982;1877;-54
2024/02/29 02:36:06;;;;;;;;;;;;;;;2.13;100.00;96970.38;30001;982;1877;-54
2024/02/29 02:36:37;;;;;;;;;;;;;;;2.15;100.00;96964.78;30001;982;1877;-53
2024/02/29 02:37:08;;;;;;;;;;;;;;;2.15;100.00;96970.16;30001;982;1877;-53
2024/02/29 02:37:40;;;;;;;;;;;;;;;2.16;100.00;96966.41;30001;982;1877;-53
2024/02/29 02:38:11;;;;;;;;;;;;;;;2.17;100.00;96968.06;30000;982;1994;-53
2024/02/29 02:38:42;;;;;;;;;;;;;;;2.17;100.00;96965.38;30001;983;1871;-53
2024/02/29 02:39:14;;;;;;;;;;;;;;;2.17;100.00;96968.06;30001;983;1876;-53
2024/02/29 02:39:45;;;;;;;;;;;;;;;2.14;100.00;96971.19;30001;983;1876;-53
2024/02/29 02:40:16;;;;;;;;;;;;;;;2.13;100.00;96961.53;30001;983;1876;-54
2024/02/29 02:40:47;;;;;;;;;;;;;;;2.09;100.00;96965.72;30001;983;1876;-54
2024/02/29 02:41:18;;;;;;;;;;;;;;;2.07;100.00;96954.47;30001;983;1775;-53
2024/02/29 02:41:49;;;;;;;;;;;;;;;2.07;100.00;96959.84;30001;983;1876;-53
2024/02/29 02:42:20;;;;;;;;;;;;;;;2.06;100.00;96960.87;30001;983;1877;-53
2024/02/29 02:42:51;;;;;;;;;;;;;;;2.05;100.00;96959.25;30001;986;1877;-53
2024/02/29 02:43:22;;;;;;;;;;;;;;;2.04;100.00;96957.63;30001;982;1859;-54
2024/02/29 02:43:53;;;;;;;;;;;;;;;2.03;100.00;96966.72;30001;982;1872;-53
2024/02/29 02:44:24;;;;;;;;;;;;;;;2.02;100.00;96960.53;30001;982;1877;-69
2024/02/29 02:44:55;;;;;;;;;;;;;;;2.02;100.00;96960.53;30001;982;1877;-53
2024/02/29 02:45:25;;;;;;;;;;;;;;;2.01;100.00;96957.06;30001;982;1877;-54
2024/02/29 02:45:56;;;;;;;;;;;;;;;2.02;100.00;96949.84;30001;982;1877;-54
2024/02/29 02:46:29;;;;;;;;;;;;;;;2.03;100.00;96959.50;30001;983;1876;-54
2024/02/29 02:46:59;;;;;;;;;;;;;;;2.03;100.00;96946.13;30001;983;1876;-54
2024/02/29 02:47:30;;;;;;;;;;;;;;;2.04;100.00;96953.09;30001;983;1876;-54
2024/02/29 02:48:01;;;;;;;;;;;;;;;2.03;100.00;96959.50;30001;983;1876;-54
2024/02/29 02:48:32;;;;;;;;;;;;;;;2.04;100.00;96957.63;30001;983;1859;-56
2024/02/29 02:49:04;;;;;;;;;;;;;;;2.04;100.00;96952.28;30001;983;1872;-54
2024/02/29 02:49:34;;;;;;;;;;;;;;;2.05;100.00;96957.41;30001;983;1876;-54
2024/02/29 02:50:06;;;;;;;;;;;;;;;2.03;100.00;96954.13;30001;983;1776;-54
2024/02/29 02:50:37;;;;;;;;;;;;;;;2.01;100.00;96958.91;30001;982;1876;-55
2024/02/29 02:51:08;;;;;;;;;;;;;;;2.00;100.00;96960.78;30001;982;1843;-54
2024/02/29 02:51:39;;;;;;;;;;;;;;;2.01;100.00;96959.72;30001;982;1877;-54
2024/02/29 02:52:10;;;;;;;;;;;;;;;2.03;100.00;96959.50;30001;982;1876;-54
2024/02/29 02:52:41;;;;;;;;;;;;;;;2.05;100.00;96953.91;30001;982;1877;-54
2024/02/29 02:53:12;;;;;;;;;;;;;;;2.08;100.00;96956.12;30001;982;1877;-54